Seven Mile Ford, Virginia
Current Conditions -  °F | °C
As of 2:55 PM on Monday 22 Dec 2014 (Local Time) from KMKJ Reporting Station
Haze Haze  
Wind Chill: 31°   Ceiling: 400
Heat Index: 37°   Visibility: 1.2mi
Dew Point: 36°   Wind: 9mph
Humidity: 93%   Direction: 70°ENE
Pressure: 30.01"   Gusts: NA
Location:  36.81°N, 81.63°W
Report Text: KMKJ 221955Z AUTO 07008KT 1 1/4SM BR OVC004 03/02 A3001 RMK AO2 T00300020
Loading
Personal Weather Stations






























Interactive Weather Map New forecast layout! Learn more

10-Day Weather Forecast

Advertisements
Track Severe Weather on mobile